Météo Nord-Pas-de-Calais   La météo au plus près de chez vous

Station météorologique

Observations météo à Bernay (27056)

27056003 166 m Dernier relevé à 20:36
22.8°C
Humidité 72 % Vent 7.6 km/h

Journée consultée

Jeudi 3 Septembre 2026

Synthèse de la journée

Périodes de référence en UTC

Température maximale

25.1°C

à 18:00

06h 06h

Température minimale

15.3°C

à 07:12

18h 18h

Rafale maximale

30 km/h

à 14:18

00h 00h

Précipitations

0 mm

Cumul quotidien

06h 06h

Ensoleillement

1h 24 mins

Durée quotidienne

00h 00h

Graphiques de la journée

Heure locale Réduire

Données détaillées

Relevés météo

Pas de 6 minutes Afficher les relevés infra-horaires
Relevés météo détaillés à Bernay pour le Jeudi 3 Septembre 2026
Heure Température °C Point de rosée °C Humidité % Vent moyen (raf.), km/h Précipitations mm Ensoleillement min Rayonnement global W/m²
20:36 22.8 °C 18.8 °C 78 % 3 km/h (5 km/h) 0 mm0 mm 0 min 0 W/m²
20:30 22.9 °C 18.7 °C 77 % 3 km/h (5 km/h) 0 mm0 mm 0 min 0 W/m²
20:24 23 °C 18.7 °C 77 % 3 km/h (5 km/h) 0 mm0 mm 0 min 0 W/m²
20:18 23.2 °C 18.7 °C 76 % 4 km/h (9 km/h) 0 mm0 mm 0 min 0 W/m²
20:12 23.3 °C 18.6 °C 75 % 5 km/h (9 km/h) 0 mm0 mm 0 min 0 W/m²
20:06 23.4 °C 18.7 °C 75 % 4 km/h (7 km/h) 0 mm0 mm 0 min 1.8 W/m²
20:00 23.6 °C 18.7 °C 74 % 5 km/h (10 km/h) 0 mm0 mm 0 min 5.8 W/m²
19:54 23.6 °C 18.5 °C 73 % 6 km/h (12 km/h) 0 mm0 mm 0 min 8.6 W/m²
19:48 23.7 °C 18.6 °C 73 % 6 km/h (12 km/h) 0 mm0 mm 0 min 8.3 W/m²
19:42 23.9 °C 18.8 °C 73 % 5 km/h (10 km/h) 0 mm0 mm 0 min 11 W/m²
19:36 23.9 °C 18.5 °C 72 % 8 km/h (14 km/h) 0 mm0 mm 0 min 18 W/m²
19:30 24 °C 18.6 °C 72 % 9 km/h (14 km/h) 0 mm0 mm 2 min 28.9 W/m²
19:24 24 °C 18.6 °C 72 % 10 km/h (18 km/h) 0 mm0 mm 0 min 27 W/m²
19:18 24 °C 18.4 °C 71 % 12 km/h (19 km/h) 0 mm0 mm 0 min 29.4 W/m²
19:12 24.2 °C 18.6 °C 71 % 9 km/h (17 km/h) 0 mm0 mm 0 min 37.2 W/m²
19:06 24.1 °C 18.7 °C 72 % 10 km/h (17 km/h) 0 mm0 mm 1 min 36.6 W/m²
19:00 23.9 °C 18.5 °C 72 % 10 km/h (15 km/h) 0 mm0 mm 0 min 25.1 W/m²
18:54 23.9 °C 18.5 °C 72 % 9 km/h (15 km/h) 0 mm0 mm 0 min 27 W/m²
18:48 23.9 °C 18.5 °C 72 % 10 km/h (17 km/h) 0 mm0 mm 0 min 20.5 W/m²
18:42 23.9 °C 18.3 °C 71 % 12 km/h (21 km/h) 0 mm0 mm 0 min 19 W/m²
18:36 24 °C 18.4 °C 71 % 13 km/h (21 km/h) 0 mm0 mm 0 min 22.8 W/m²
18:30 24.2 °C 18.6 °C 71 % 14 km/h (23 km/h) 0 mm0 mm 0 min 36.7 W/m²
18:24 24.3 °C 18.5 °C 70 % 15 km/h (24 km/h) 0 mm0 mm 0 min 42.7 W/m²
18:18 24.4 °C 18.6 °C 70 % 17 km/h (26 km/h) 0 mm0 mm 0 min 50.9 W/m²
18:12 24.6 °C 18.5 °C 69 % 16 km/h (26 km/h) 0 mm0 mm 0 min 65.6 W/m²
18:06 24.7 °C 18.6 °C 69 % 14 km/h (24 km/h) 0 mm0 mm 2 min 78.6 W/m²
18:00 25 °C 18.7 °C 68 % 13 km/h (23 km/h) 0 mm0 mm 4 min 126.6 W/m²
17:54 24.7 °C 18.9 °C 70 % 13 km/h (18 km/h) 0 mm0 mm 3 min 118.3 W/m²
17:48 24.7 °C 18.9 °C 70 % 14 km/h (22 km/h) 0 mm0 mm 5 min 137.9 W/m²
17:42 24.4 °C 19 °C 72 % 15 km/h (22 km/h) 0 mm0 mm 5 min 144.9 W/m²
17:36 23.8 °C 18.7 °C 73 % 15 km/h (26 km/h) 0 mm0 mm 0 min 80 W/m²
17:30 23.8 °C 18.7 °C 73 % 14 km/h (22 km/h) 0 mm0 mm 0 min 65.4 W/m²
17:24 23.9 °C 18.5 °C 72 % 16 km/h (27 km/h) 0 mm0 mm 0 min 79.8 W/m²
17:18 23.8 °C 18.7 °C 73 % 16 km/h (27 km/h) 0 mm0 mm 1 min 103.4 W/m²
17:12 23.6 °C 18.7 °C 74 % 17 km/h (27 km/h) 0 mm0 mm 0 min 74.3 W/m²
17:06 23.4 °C 18.5 °C 74 % 17 km/h (28 km/h) 0 mm0 mm 0 min 50.6 W/m²
17:00 23.6 °C 18.5 °C 73 % 18 km/h (28 km/h) 0 mm0 mm 0 min 72.3 W/m²
16:54 23.8 °C 18.7 °C 73 % 18 km/h (28 km/h) 0 mm0 mm 0 min 88.3 W/m²
16:48 24 °C 18.4 °C 71 % 19 km/h (28 km/h) 0 mm0 mm 0 min 108.1 W/m²
16:42 23.8 °C 18.7 °C 73 % 18 km/h (28 km/h) 0 mm0 mm 0 min 91.2 W/m²
16:36 23.8 °C 18.7 °C 73 % 17 km/h (24 km/h) 0 mm0 mm 0 min 66.8 W/m²
16:30 23.8 °C 18.7 °C 73 % 15 km/h (22 km/h) 0 mm0 mm 0 min 69.3 W/m²
16:24 23.9 °C 18.8 °C 73 % 13 km/h (22 km/h) 0 mm0 mm 0 min 75.9 W/m²
16:18 24 °C 18.9 °C 73 % 11 km/h (19 km/h) 0 mm0 mm 0 min 82.1 W/m²
16:12 24.2 °C 19.1 °C 73 % 12 km/h (22 km/h) 0 mm0 mm 0 min 105.3 W/m²
16:06 24.1 °C 19.2 °C 74 % 13 km/h (24 km/h) 0 mm0 mm 0 min 124.2 W/m²
16:00 23.9 °C 19.2 °C 75 % 12 km/h (21 km/h) 0 mm0 mm 0 min 87.7 W/m²
15:54 23.7 °C 18.6 °C 73 % 14 km/h (23 km/h) 0 mm0 mm 0 min 75.4 W/m²
15:48 23.5 °C 18.6 °C 74 % 14 km/h (23 km/h) 0 mm0 mm 0 min 68.4 W/m²
15:42 23.5 °C 18.8 °C 75 % 15 km/h (22 km/h) 0 mm0 mm 0 min 69.1 W/m²
15:36 23.5 °C 18.6 °C 74 % 15 km/h (24 km/h) 0 mm0 mm 0 min 65.5 W/m²
15:30 23.4 °C 18.5 °C 74 % 16 km/h (27 km/h) 0 mm0 mm 0 min 66.8 W/m²
15:24 23.4 °C 18.5 °C 74 % 12 km/h (27 km/h) 0 mm0 mm 0 min 61.3 W/m²
15:18 23.3 °C 18.8 °C 76 % 13 km/h (21 km/h) 0 mm0 mm 0 min 49.6 W/m²
15:12 23.3 °C 18.6 °C 75 % 15 km/h (26 km/h) 0 mm0 mm 0 min 50.1 W/m²
15:06 23.3 °C 18.4 °C 74 % 17 km/h (27 km/h) 0 mm0 mm 0 min 69.5 W/m²
15:00 23.4 °C 18.3 °C 73 % 17 km/h (27 km/h) 0 mm0 mm 0 min 97.3 W/m²
14:54 23.4 °C 18.5 °C 74 % 18 km/h (25 km/h) 0 mm0 mm 0 min 108.2 W/m²
14:48 23.4 °C 18.5 °C 74 % 15 km/h (25 km/h) 0 mm0 mm 0 min 89.7 W/m²
14:42 23.3 °C 18.4 °C 74 % 15 km/h (25 km/h) 0 mm0 mm 0 min 104 W/m²
14:36 23.3 °C 18.4 °C 74 % 17 km/h (27 km/h) 0 mm0 mm 0 min 100.6 W/m²
14:30 23.2 °C 18.3 °C 74 % 17 km/h (26 km/h) 0 mm0 mm 0 min 86.5 W/m²
14:24 23.1 °C 18.2 °C 74 % 18 km/h (30 km/h) 0 mm0 mm 0 min 82.1 W/m²
14:18 23 °C 18.1 °C 74 % 17 km/h (30 km/h) 0 mm0 mm 0 min 90.5 W/m²
14:12 23 °C 18.3 °C 75 % 15 km/h (26 km/h) 0 mm0 mm 0 min 82.3 W/m²
14:06 22.9 °C 18.2 °C 75 % 13 km/h (22 km/h) 0 mm0 mm 0 min 104.6 W/m²
14:00 22.8 °C 18.3 °C 76 % 14 km/h (24 km/h) 0 mm0 mm 0 min 97.5 W/m²
13:54 22.5 °C 18.1 °C 76 % 16 km/h (24 km/h) 0 mm0 mm 0 min 87.4 W/m²
13:48 22.5 °C 18.3 °C 77 % 16 km/h (26 km/h) 0 mm0 mm 0 min 86.9 W/m²
13:42 22.4 °C 17.7 °C 75 % 18 km/h (27 km/h) 0 mm0 mm 0 min 99.8 W/m²
13:36 22.5 °C 18.1 °C 76 % 18 km/h (28 km/h) 0 mm0 mm 0 min 111.7 W/m²
13:30 22.5 °C 17.8 °C 75 % 16 km/h (28 km/h) 0 mm0 mm 0 min 147.9 W/m²
13:24 22.6 °C 18.4 °C 77 % 14 km/h (28 km/h) 0 mm0 mm 0 min 143.2 W/m²
13:18 22.4 °C 18.2 °C 77 % 14 km/h (23 km/h) 0 mm0 mm 0 min 144.9 W/m²
13:12 22 °C 18 °C 78 % 16 km/h (25 km/h) 0 mm0 mm 0 min 109.3 W/m²
13:06 22 °C 17.8 °C 77 % 16 km/h (27 km/h) 0 mm0 mm 0 min 89 W/m²
13:00 21.9 °C 17.7 °C 77 % 15 km/h (27 km/h) 0 mm0 mm 0 min 86.6 W/m²
12:54 21.9 °C 18.1 °C 79 % 14 km/h (23 km/h) 0 mm0 mm 0 min 78.8 W/m²
12:48 21.9 °C 18.1 °C 79 % 14 km/h (23 km/h) 0 mm0 mm 0 min 127.6 W/m²
12:42 21.6 °C 17.8 °C 79 % 16 km/h (28 km/h) 0 mm0 mm 0 min 132.5 W/m²
12:36 21.3 °C 17.5 °C 79 % 15 km/h (28 km/h) 0 mm0 mm 0 min 110.1 W/m²
12:30 21.3 °C 17.7 °C 80 % 15 km/h (25 km/h) 0 mm0 mm 0 min 124.5 W/m²
12:24 20.9 °C 17.3 °C 80 % 17 km/h (25 km/h) 0 mm0 mm 0 min 102.7 W/m²
12:18 20.9 °C 17.3 °C 80 % 17 km/h (27 km/h) 0 mm0 mm 0 min 91.8 W/m²
12:12 20.8 °C 17.4 °C 81 % 15 km/h (27 km/h) 0 mm0 mm 0 min 82.3 W/m²
12:06 20.7 °C 17.1 °C 80 % 14 km/h (22 km/h) 0 mm0 mm 0 min 67.9 W/m²
12:00 20.7 °C 17.3 °C 81 % 15 km/h (26 km/h) 0 mm0 mm 0 min 68.7 W/m²
11:54 20.6 °C 17 °C 80 % 16 km/h (28 km/h) 0 mm0 mm 0 min 80.9 W/m²
11:48 20.8 °C 17.2 °C 80 % 15 km/h (28 km/h) 0 mm0 mm 0 min 99.8 W/m²
11:42 20.7 °C 17.1 °C 80 % 14 km/h (24 km/h) 0 mm0 mm 0 min 111.7 W/m²
11:36 20.7 °C 17.3 °C 81 % 14 km/h (24 km/h) 0 mm0 mm 0 min 115.8 W/m²
11:30 20.6 °C 17.4 °C 82 % 15 km/h (25 km/h) 0 mm0 mm 0 min 135.2 W/m²
11:24 20.2 °C 17 °C 82 % 16 km/h (25 km/h) 0 mm0 mm 0 min 99.7 W/m²
11:18 20.3 °C 16.9 °C 81 % 15 km/h (23 km/h) 0 mm0 mm 0 min 87.8 W/m²
11:12 20.3 °C 17.3 °C 83 % 15 km/h (25 km/h) 0 mm0 mm 0 min 93.4 W/m²
11:06 20 °C 17 °C 83 % 17 km/h (25 km/h) 0 mm0 mm 0 min 94 W/m²
11:00 19.9 °C 16.7 °C 82 % 14 km/h (23 km/h) 0 mm0 mm 0 min 91.1 W/m²
10:54 19.9 °C 16.9 °C 83 % 12 km/h (20 km/h) 0 mm0 mm 0 min 91.3 W/m²
10:48 19.6 °C 16.8 °C 84 % 13 km/h (22 km/h) 0 mm0 mm 0 min 82 W/m²
10:42 19.3 °C 16.5 °C 84 % 14 km/h (23 km/h) 0 mm0 mm 0 min 56.7 W/m²
10:36 19.3 °C 16.5 °C 84 % 12 km/h (23 km/h) 0 mm0 mm 0 min 48.3 W/m²
10:30 19.3 °C 16.7 °C 85 % 14 km/h (24 km/h) 0 mm0 mm 0 min 50.1 W/m²
10:24 19.2 °C 16.4 °C 84 % 15 km/h (24 km/h) 0 mm0 mm 0 min 50.9 W/m²
10:18 19.3 °C 16.3 °C 83 % 13 km/h (21 km/h) 0 mm0 mm 0 min 59.4 W/m²
10:12 19.1 °C 16.5 °C 85 % 13 km/h (21 km/h) 0 mm0 mm 0 min 61.4 W/m²
10:06 19.1 °C 16.5 °C 85 % 13 km/h (21 km/h) 0 mm0 mm 0 min 58.9 W/m²
10:00 18.8 °C 16.2 °C 85 % 14 km/h (22 km/h) 0 mm0 mm 0 min 50.1 W/m²
09:54 18.7 °C 16.1 °C 85 % 15 km/h (22 km/h) 0 mm0 mm 0 min 51.6 W/m²
09:48 18.6 °C 16.2 °C 86 % 16 km/h (28 km/h) 0 mm0 mm 0 min 55 W/m²
09:42 18.5 °C 15.9 °C 85 % 17 km/h (28 km/h) 0 mm0 mm 0 min 63.3 W/m²
09:36 18.5 °C 15.9 °C 85 % 16 km/h (25 km/h) 0 mm0 mm 3 min 79.8 W/m²
09:30 18.6 °C 16.2 °C 86 % 17 km/h (28 km/h) 0 mm0 mm 3 min 79.1 W/m²
09:24 18.4 °C 15.8 °C 85 % 16 km/h (28 km/h) 0 mm0 mm 4 min 72.4 W/m²
09:18 18.5 °C 15.7 °C 84 % 14 km/h (23 km/h) 0 mm0 mm 6 min 97.1 W/m²
09:12 18.2 °C 15.8 °C 86 % 14 km/h (24 km/h) 0 mm0 mm 6 min 95.4 W/m²
09:06 17.9 °C 15.7 °C 87 % 14 km/h (23 km/h) 0 mm0 mm 6 min 74 W/m²
09:00 17.6 °C 15.6 °C 88 % 14 km/h (24 km/h) 0 mm0 mm 1 min 40.6 W/m²
08:54 17.6 °C 15.6 °C 88 % 14 km/h (24 km/h) 0 mm0 mm 3 min 48.4 W/m²
08:48 17.4 °C 15.4 °C 88 % 14 km/h (23 km/h) 0 mm0 mm 4 min 49.5 W/m²
08:42 17.3 °C 15.3 °C 88 % 12 km/h (21 km/h) 0 mm0 mm 6 min 53.4 W/m²
08:36 17.3 °C 15.5 °C 89 % 11 km/h (22 km/h) 0 mm0 mm 6 min 50.7 W/m²
08:30 17 °C 15.2 °C 89 % 12 km/h (22 km/h) 0 mm0 mm 4 min 34.6 W/m²
08:24 16.8 °C 15.1 °C 90 % 10 km/h (22 km/h) 0 mm0 mm 4 min 33.6 W/m²
08:18 16.6 °C 15 °C 90 % 10 km/h (18 km/h) 0 mm0 mm 2 min 24 W/m²
08:12 16.4 °C 14.9 °C 91 % 10 km/h (19 km/h) 0 mm0 mm 1 min 18.2 W/m²
08:06 16.2 °C 14.9 °C 92 % 10 km/h (19 km/h) 0 mm0 mm 2 min 13.9 W/m²
08:00 16.1 °C 14.8 °C 92 % 9 km/h (18 km/h) 0 mm0 mm 0 min 6.4 W/m²
07:54 16.1 °C 14.8 °C 92 % 9 km/h (17 km/h) 0 mm0 mm 0 min 3 W/m²
07:48 16 °C 14.7 °C 92 % 8 km/h (15 km/h) 0 mm0 mm 0 min 7.4 W/m²
07:42 15.9 °C 14.6 °C 92 % 7 km/h (17 km/h) 0 mm0 mm 0 min 5.6 W/m²
07:36 15.8 °C 14.5 °C 92 % 8 km/h (17 km/h) 0 mm0 mm 0 min 0.3 W/m²
07:30 15.6 °C 14.5 °C 93 % 8 km/h (15 km/h) 0 mm0 mm 0 min 0 W/m²
07:24 15.4 °C 14.3 °C 93 % 8 km/h (15 km/h) 0 mm0 mm 0 min 0 W/m²
07:18 15.4 °C 14.3 °C 93 % 8 km/h (14 km/h) 0 mm0 mm 0 min 0 W/m²
07:12 15.3 °C 14.2 °C 93 % 8 km/h (14 km/h) 0 mm0 mm 0 min 0 W/m²
07:06 15.4 °C 14.1 °C 92 % 7 km/h (13 km/h) 0 mm0 mm 0 min 0 W/m²
07:00 15.4 °C 14.1 °C 92 % 7 km/h (14 km/h) 0 mm0 mm 0 min 0 W/m²
06:54 15.4 °C 14.1 °C 92 % 7 km/h (14 km/h) 0 mm0 mm 0 min 0 W/m²
06:48 15.5 °C 14.2 °C 92 % 7 km/h (14 km/h) 0 mm0 mm 0 min 0 W/m²
06:42 15.5 °C 14.2 °C 92 % 8 km/h (13 km/h) 0 mm0 mm 0 min 0 W/m²
06:36 15.5 °C 14.2 °C 92 % 7 km/h (13 km/h) 0 mm0 mm 0 min 0 W/m²
06:30 15.5 °C 14.2 °C 92 % 6 km/h (13 km/h) 0 mm0 mm 0 min 0 W/m²
06:24 15.5 °C 14 °C 91 % 7 km/h (13 km/h) 0 mm0 mm 0 min 0 W/m²
06:18 15.4 °C 13.9 °C 91 % 7 km/h (12 km/h) 0 mm0 mm 0 min 0 W/m²
06:12 15.6 °C 14.1 °C 91 % 7 km/h (12 km/h) 0 mm0 mm 0 min 0 W/m²
06:06 15.5 °C 14 °C 91 % 8 km/h (12 km/h) 0 mm0 mm 0 min 0 W/m²
06:00 15.6 °C 14.1 °C 91 % 7 km/h (11 km/h) 0 mm0 mm 0 min 0 W/m²
05:54 15.6 °C 14 °C 90 % 7 km/h (12 km/h) 0 mm0 mm 0 min 0 W/m²
05:48 15.6 °C 14 °C 90 % 8 km/h (14 km/h) 0 mm0 mm 0 min 0 W/m²
05:42 15.6 °C 13.8 °C 89 % 8 km/h (14 km/h) 0 mm0 mm 0 min 0 W/m²
05:36 15.7 °C 13.9 °C 89 % 9 km/h (16 km/h) 0 mm0 mm 0 min 0 W/m²
05:30 15.7 °C 13.9 °C 89 % 9 km/h (16 km/h) 0 mm0 mm 0 min 0 W/m²
05:24 15.6 °C 13.8 °C 89 % 8 km/h (14 km/h) 0 mm0 mm 0 min 0 W/m²
05:18 15.5 °C 13.5 °C 88 % 7 km/h (13 km/h) 0 mm0 mm 0 min 0 W/m²
05:12 15.5 °C 13.3 °C 87 % 8 km/h (14 km/h) 0 mm0 mm 0 min 0 W/m²
05:06 15.4 °C 13.2 °C 87 % 9 km/h (14 km/h) 0 mm0 mm 0 min 0 W/m²
05:00 15.4 °C 13.1 °C 86 % 9 km/h (14 km/h) 0 mm0 mm 0 min 0 W/m²
04:54 15.6 °C 13.1 °C 85 % 9 km/h (15 km/h) 0 mm0 mm 0 min 0 W/m²
04:48 15.7 °C 13 °C 84 % 8 km/h (15 km/h) 0 mm0 mm 0 min 0 W/m²
04:42 15.8 °C 12.9 °C 83 % 8 km/h (13 km/h) 0 mm0 mm 0 min 0 W/m²
04:36 15.9 °C 13 °C 83 % 7 km/h (11 km/h) 0 mm0 mm 0 min 0 W/m²
04:30 16 °C 13.1 °C 83 % 7 km/h (11 km/h) 0 mm0 mm 0 min 0 W/m²
04:24 16.1 °C 13.2 °C 83 % 6 km/h (10 km/h) 0 mm0 mm 0 min 0 W/m²
04:18 16.1 °C 13.2 °C 83 % 5 km/h (9 km/h) 0 mm0 mm 0 min 0 W/m²
04:12 16.1 °C 13.2 °C 83 % 6 km/h (11 km/h) 0 mm0 mm 0 min 0 W/m²
04:06 16.2 °C 13.1 °C 82 % 8 km/h (13 km/h) 0 mm0 mm 0 min 0 W/m²
04:00 16.3 °C 13.2 °C 82 % 8 km/h (13 km/h) 0 mm0 mm 0 min 0 W/m²
03:54 16.3 °C 13.2 °C 82 % 8 km/h (13 km/h) 0 mm0 mm 0 min 0 W/m²
03:48 16 °C 13.1 °C 83 % 6 km/h (12 km/h) 0 mm0 mm 0 min 0 W/m²
03:42 16 °C 13.1 °C 83 % 6 km/h (10 km/h) 0 mm0 mm 0 min 0 W/m²
03:36 15.9 °C 13.2 °C 84 % 6 km/h (10 km/h) 0 mm0 mm 0 min 0 W/m²
03:30 15.8 °C 13.3 °C 85 % 6 km/h (10 km/h) 0 mm0 mm 0 min 0 W/m²
03:24 15.8 °C 13.5 °C 86 % 6 km/h (10 km/h) 0 mm0 mm 0 min 0 W/m²
03:18 15.7 °C 13.4 °C 86 % 7 km/h (10 km/h) 0 mm0 mm 0 min 0 W/m²
03:12 15.6 °C 13.3 °C 86 % 6 km/h (9 km/h) 0 mm0 mm 0 min 0 W/m²
03:06 15.7 °C 13.2 °C 85 % 6 km/h (9 km/h) 0 mm0 mm 0 min 0 W/m²
03:00 15.8 °C 13.5 °C 86 % 5 km/h (8 km/h) 0 mm0 mm 0 min 0 W/m²
02:54 15.8 °C 13.3 °C 85 % 5 km/h (8 km/h) 0 mm0 mm 0 min 0 W/m²
02:48 16 °C 13.5 °C 85 % 5 km/h (10 km/h) 0 mm0 mm 0 min 0 W/m²
02:42 16.1 °C 13.6 °C 85 % 7 km/h (10 km/h) 0 mm0 mm 0 min 0 W/m²
02:36 16 °C 13.5 °C 85 % 7 km/h (10 km/h) 0 mm0 mm 0 min 0 W/m²
02:30 16.3 °C 13.8 °C 85 % 6 km/h (10 km/h) 0 mm0 mm 0 min 0 W/m²
02:24 16.4 °C 13.9 °C 85 % 6 km/h (9 km/h) 0 mm0 mm 0 min 0 W/m²
02:18 16.5 °C 14 °C 85 % 5 km/h (9 km/h) 0 mm0 mm 0 min 0 W/m²
02:12 16.6 °C 13.9 °C 84 % 6 km/h (10 km/h) 0 mm0 mm 0 min 0 W/m²
02:06 16.8 °C 13.9 °C 83 % 6 km/h (10 km/h) 0 mm0 mm 0 min 0 W/m²
02:00 17 °C 14.1 °C 83 % 6 km/h (11 km/h) 0 mm0 mm 0 min 0 W/m²
01:54 17.1 °C 14.2 °C 83 % 7 km/h (11 km/h) 0 mm0 mm 0 min 0 W/m²
01:48 17.3 °C 14.4 °C 83 % 7 km/h (12 km/h) 0 mm0 mm 0 min 0 W/m²
01:42 17.6 °C 14.3 °C 81 % 8 km/h (15 km/h) 0 mm0 mm 0 min 0 W/m²
01:36 17.7 °C 14.4 °C 81 % 8 km/h (15 km/h) 0 mm0 mm 0 min 0 W/m²
01:30 17.5 °C 13.8 °C 79 % 9 km/h (16 km/h) 0 mm0 mm 0 min 0 W/m²
01:24 17.7 °C 14 °C 79 % 11 km/h (17 km/h) 0 mm0 mm 0 min 0 W/m²
01:18 17.6 °C 14.1 °C 80 % 11 km/h (17 km/h) 0 mm0 mm 0 min 0 W/m²
01:12 17.1 °C 13.6 °C 80 % 9 km/h (15 km/h) 0 mm0 mm 0 min 0 W/m²
01:06 16.6 °C 13.1 °C 80 % 8 km/h (14 km/h) 0 mm0 mm 0 min 0 W/m²
01:00 16.7 °C 13 °C 79 % 9 km/h (14 km/h) 0 mm0 mm 0 min 0 W/m²
00:54 16.2 °C 13.1 °C 82 % 9 km/h (15 km/h) 0 mm0 mm 0 min 0 W/m²
00:48 15.7 °C 13 °C 84 % 6 km/h (15 km/h) 0 mm0 mm 0 min 0 W/m²
00:42 15.8 °C 13.1 °C 84 % 4 km/h (6 km/h) 0 mm0 mm 0 min 0 W/m²
00:36 15.9 °C 13 °C 83 % 4 km/h (6 km/h) 0 mm0 mm 0 min 0 W/m²
00:30 16.1 °C 13.2 °C 83 % 5 km/h (8 km/h) 0 mm0 mm 0 min 0 W/m²
00:24 16.3 °C 13.4 °C 83 % 5 km/h (8 km/h) 0 mm0 mm 0 min 0 W/m²
00:18 16.3 °C 13.4 °C 83 % 5 km/h (7 km/h) 0 mm0 mm 0 min 0 W/m²
00:12 16.2 °C 13.5 °C 84 % 5 km/h (7 km/h) 0 mm0 mm 0 min 0 W/m²
00:06 16.3 °C 13.6 °C 84 % 5 km/h (7 km/h) 0 mm0 mm 0 min 0 W/m²
00:00 16.2 °C 13.5 °C 84 % 4 km/h (7 km/h) 0 mm0 mm 0 min 0 W/m²

Données via Météo-France

Relevés météo à Bernay

Cette page rassemble les observations de la station de Bernay : température, humidité, vent, précipitations et pression atmosphérique. Les graphiques facilitent le suivi de la journée, tandis que le tableau donne accès aux mesures horaires et infra-horaires disponibles.

Pour replacer ces mesures dans leur contexte, consultez la climatologie de Bernay ainsi que ses normales et records. Retrouvez aussi la carte des observations météo en temps réel.